Time;durP1;ratioP1;P1;durP2;ratioP2;P2;SDS_P1;SDS_P2;PMS_P1;PMS_P2;Temp;Humidity;BMP_temperature;BMP_pressure;BME280_temperature;BME280_humidity;BME280_pressure;Samples;Min_cycle;Max_cycle;Signal;HPM_P1;HPM_P2
2021/10/25 00:01:47;;;;;;;0.30;0.30;;;6.50;95.80;;;;;;5016606;28;20194;-68
2021/10/25 00:04:12;;;;;;;0.30;0.30;;;6.50;95.60;;;;;;5016882;28;20660;-68
2021/10/25 00:06:38;;;;;;;0.30;0.30;;;6.50;95.80;;;;;;5016636;28;20179;-67
2021/10/25 00:09:04;;;;;;;0.30;0.30;;;6.50;95.70;;;;;;5016693;28;20203;-67
2021/10/25 00:11:31;;;;;;;0.30;0.30;;;6.50;95.70;;;;;;5016497;28;20198;-67
2021/10/25 00:13:56;;;;;;;0.40;0.40;;;6.50;95.70;;;;;;5015344;28;20238;-67
2021/10/25 00:16:22;;;;;;;0.37;0.37;;;6.50;95.70;;;;;;5016354;28;20226;-67
2021/10/25 00:18:48;;;;;;;0.40;0.40;;;6.60;95.90;;;;;;5016350;28;20172;-68
2021/10/25 00:21:14;;;;;;;0.40;0.40;;;6.60;95.90;;;;;;5016590;28;20279;-68
2021/10/25 00:23:39;;;;;;;0.40;0.40;;;6.70;96.10;;;;;;5015467;28;20176;-68
2021/10/25 00:26:05;;;;;;;0.40;0.40;;;6.70;96.10;;;;;;5016147;28;20171;-68
2021/10/25 00:28:31;;;;;;;0.30;0.30;;;6.70;96.20;;;;;;5016388;28;20180;-68
2021/10/25 00:30:57;;;;;;;0.40;0.40;;;6.70;96.00;;;;;;5016389;28;20219;-67
2021/10/25 00:33:22;;;;;;;1.27;0.70;;;6.60;96.30;;;;;;5016095;28;20230;-68
2021/10/25 00:35:48;;;;;;;0.40;0.40;;;6.50;96.60;;;;;;5016024;28;20549;-68
2021/10/25 00:38:15;;;;;;;0.40;0.40;;;6.50;96.60;;;;;;5016061;28;20176;-68
2021/10/25 00:40:42;;;;;;;0.30;0.30;;;6.60;96.60;;;;;;5016069;28;20188;-68
2021/10/25 00:43:08;;;;;;;1.15;1.10;;;6.60;96.60;;;;;;5015958;28;20298;-68
2021/10/25 00:45:33;;;;;;;0.37;0.37;;;6.70;96.50;;;;;;5015865;28;20636;-67
2021/10/25 00:47:59;;;;;;;0.30;0.30;;;6.70;96.30;;;;;;5015985;28;20218;-67
2021/10/25 00:50:25;;;;;;;0.30;0.30;;;6.80;96.20;;;;;;5015771;28;20200;-68
2021/10/25 00:52:51;;;;;;;0.33;0.33;;;6.80;96.30;;;;;;5015888;28;20278;-68
2021/10/25 00:55:17;;;;;;;0.30;0.30;;;6.80;96.30;;;;;;5015886;28;20510;-68
2021/10/25 00:57:43;;;;;;;0.40;0.40;;;6.80;96.10;;;;;;5015800;28;20234;-68
2021/10/25 01:00:11;;;;;;;0.40;0.40;;;6.80;96.10;;;;;;5015870;28;20160;-68
2021/10/25 01:02:37;;;;;;;0.30;0.30;;;6.80;96.10;;;;;;5015550;28;20168;-68
2021/10/25 01:05:04;;;;;;;0.30;0.30;;;6.80;96.30;;;;;;5015572;28;20191;-68
2021/10/25 01:07:29;;;;;;;0.38;0.38;;;6.70;96.30;;;;;;5015540;28;20214;-68
2021/10/25 01:09:56;;;;;;;0.30;0.30;;;6.70;96.30;;;;;;5015551;28;20207;-68
2021/10/25 01:12:22;;;;;;;0.40;0.40;;;6.70;96.20;;;;;;5015391;28;20564;-68
2021/10/25 01:14:48;;;;;;;0.30;0.30;;;6.70;96.30;;;;;;5015459;28;20171;-68
2021/10/25 01:17:13;;;;;;;0.30;0.30;;;6.60;96.20;;;;;;5015339;28;20452;-66
2021/10/25 01:19:39;;;;;;;0.30;0.30;;;6.50;96.40;;;;;;5015461;28;20195;-68
2021/10/25 01:22:05;;;;;;;0.30;0.30;;;6.50;96.90;;;;;;5015256;28;20228;-67
2021/10/25 01:24:30;;;;;;;0.40;0.40;;;6.50;97.10;;;;;;5015445;28;20403;-68
2021/10/25 01:26:56;;;;;;;0.30;0.30;;;6.60;97.10;;;;;;5015071;28;20175;-66
2021/10/25 01:29:22;;;;;;;0.30;0.30;;;6.60;97.10;;;;;;5015309;28;20176;-67
2021/10/25 01:31:49;;;;;;;0.30;0.30;;;6.70;96.90;;;;;;5015467;28;20920;-68
2021/10/25 01:34:15;;;;;;;0.30;0.30;;;6.70;96.90;;;;;;5014903;28;20191;-68
2021/10/25 01:36:41;;;;;;;0.40;0.40;;;6.70;97.10;;;;;;5013670;28;20215;-68
2021/10/25 01:39:09;;;;;;;0.40;0.40;;;6.60;97.40;;;;;;5015105;28;20187;-68
2021/10/25 01:41:36;;;;;;;0.40;0.40;;;6.70;97.40;;;;;;5014789;28;20222;-68
2021/10/25 01:44:02;;;;;;;1.67;1.58;;;6.70;97.30;;;;;;5014869;28;20237;-68
2021/10/25 01:46:28;;;;;;;0.30;0.30;;;6.70;97.50;;;;;;5013405;28;20533;-68
2021/10/25 01:48:54;;;;;;;0.37;0.37;;;6.80;97.60;;;;;;5015226;28;20178;-68
2021/10/25 01:51:20;;;;;;;0.30;0.30;;;6.80;97.50;;;;;;5014601;28;20446;-67
2021/10/25 01:53:46;;;;;;;0.30;0.30;;;6.80;97.40;;;;;;5014736;28;20665;-68
2021/10/25 01:56:12;;;;;;;0.30;0.30;;;6.60;97.50;;;;;;5014624;28;20175;-68
2021/10/25 01:58:38;;;;;;;0.40;0.40;;;6.60;97.90;;;;;;5014569;28;20171;-68
2021/10/25 02:01:05;;;;;;;0.30;0.30;;;6.70;97.70;;;;;;5014699;28;20427;-68
2021/10/25 02:03:33;;;;;;;0.32;0.32;;;6.80;97.50;;;;;;5014581;28;20180;-67
2021/10/25 02:05:59;;;;;;;0.40;0.40;;;6.80;97.20;;;;;;5014472;28;20171;-68
2021/10/25 02:08:25;;;;;;;0.60;0.60;;;6.70;97.00;;;;;;5014672;28;20179;-67
2021/10/25 02:10:51;;;;;;;0.30;0.30;;;6.70;97.10;;;;;;5013234;28;20222;-68
2021/10/25 02:13:17;;;;;;;0.40;0.40;;;6.70;97.20;;;;;;5014246;28;20622;-66
2021/10/25 02:15:44;;;;;;;0.30;0.30;;;6.70;97.30;;;;;;5012909;28;20260;-67
2021/10/25 02:18:11;;;;;;;0.30;0.30;;;6.60;97.50;;;;;;5014312;28;20407;-68
2021/10/25 02:20:38;;;;;;;0.40;0.40;;;6.60;98.00;;;;;;5014097;28;20222;-68
2021/10/25 02:23:04;;;;;;;0.32;0.32;;;6.60;98.00;;;;;;5014307;28;20175;-68
2021/10/25 02:25:29;;;;;;;0.40;0.40;;;6.50;98.10;;;;;;5014143;28;20178;-68
2021/10/25 02:27:55;;;;;;;0.30;0.30;;;6.60;98.40;;;;;;5014289;28;20506;-66
2021/10/25 02:30:21;;;;;;;0.35;0.35;;;6.60;98.20;;;;;;5014022;28;20295;-67
2021/10/25 02:32:47;;;;;;;0.30;0.30;;;6.50;98.20;;;;;;5014176;28;20195;-67
2021/10/25 02:35:13;;;;;;;0.30;0.30;;;6.50;98.40;;;;;;5013956;28;20868;-67
2021/10/25 02:37:38;;;;;;;0.30;0.30;;;6.60;98.20;;;;;;5014093;28;20271;-67
2021/10/25 02:40:04;;;;;;;0.30;0.30;;;6.60;98.30;;;;;;5014044;28;20518;-68
2021/10/25 02:42:32;;;;;;;0.30;0.30;;;6.70;98.40;;;;;;5012649;28;20250;-67
2021/10/25 02:44:58;;;;;;;0.40;0.40;;;6.80;98.60;;;;;;5013566;28;20214;-66
2021/10/25 02:47:23;;;;;;;0.40;0.40;;;6.90;98.50;;;;;;5013716;28;20172;-68
2021/10/25 02:49:49;;;;;;;0.33;0.33;;;6.90;97.80;;;;;;5013746;28;20202;-68
2021/10/25 02:52:15;;;;;;;0.30;0.30;;;6.90;97.90;;;;;;5013756;28;20274;-68
2021/10/25 02:54:41;;;;;;;0.50;0.50;;;7.00;98.10;;;;;;5013951;28;20175;-66
2021/10/25 02:57:07;;;;;;;0.33;0.33;;;7.00;98.00;;;;;;5013609;28;20175;-69
2021/10/25 02:59:33;;;;;;;0.40;0.40;;;7.10;97.90;;;;;;5013913;28;20407;-68
2021/10/25 03:01:58;;;;;;;0.30;0.30;;;7.10;97.80;;;;;;5013684;28;20218;-68
2021/10/25 03:04:24;;;;;;;0.30;0.30;;;7.10;97.60;;;;;;5013892;28;20245;-68
2021/10/25 03:06:49;;;;;;;0.30;0.30;;;7.10;97.50;;;;;;5013692;28;20725;-67
2021/10/25 03:09:15;;;;;;;0.30;0.30;;;7.00;97.60;;;;;;5013845;28;20175;-68
2021/10/25 03:11:41;;;;;;;0.30;0.30;;;6.90;97.80;;;;;;5013565;28;20200;-67
2021/10/25 03:14:06;;;;;;;0.30;0.30;;;6.90;98.20;;;;;;5013748;28;20238;-68
2021/10/25 03:16:32;;;;;;;0.30;0.30;;;6.90;98.50;;;;;;5013512;28;20178;-68
2021/10/25 03:18:57;;;;;;;0.30;0.30;;;7.00;98.50;;;;;;5013684;28;20179;-68
2021/10/25 03:21:24;;;;;;;0.30;0.30;;;7.10;98.40;;;;;;5013630;28;20666;-68
2021/10/25 03:23:50;;;;;;;0.30;0.30;;;7.20;98.30;;;;;;5013499;28;20187;-68
2021/10/25 03:26:16;;;;;;;0.40;0.40;;;7.30;98.00;;;;;;5013317;28;20259;-67
2021/10/25 03:28:43;;;;;;;0.30;0.30;;;7.30;97.90;;;;;;5013691;28;20200;-68
2021/10/25 03:31:10;;;;;;;0.30;0.30;;;7.20;97.90;;;;;;5013331;28;20203;-68
2021/10/25 03:33:36;;;;;;;0.30;0.30;;;7.20;98.00;;;;;;5013417;28;20199;-68
2021/10/25 03:36:05;;;;;;;0.40;0.40;;;7.20;98.10;;;;;;5013304;28;20202;-68
2021/10/25 03:38:33;;;;;;;0.30;0.30;;;7.20;98.20;;;;;;5012145;28;20187;-67
2021/10/25 03:41:00;;;;;;;0.30;0.30;;;7.20;98.20;;;;;;5013267;28;20195;-68
2021/10/25 03:43:30;;;;;;;0.30;0.30;;;7.20;97.90;;;;;;5013539;28;20267;-68
2021/10/25 03:46:43;;;;;;;0.30;0.30;;;7.20;97.70;;;;;;5013540;28;20687;-68
2021/10/25 03:48:48;;;;;;;0.30;0.30;;;7.20;97.50;;;;;;5016034;28;20207;-68
2021/10/25 03:51:15;;;;;;;0.30;0.30;;;7.20;97.50;;;;;;5013118;28;20216;-68
2021/10/25 03:56:13;;;;;;;1.63;1.37;;;7.20;97.60;;;;;;5013333;28;20661;-67
2021/10/25 04:30:14;;;;;;;0.40;0.40;;;7.00;98.70;;;;;;5016460;28;20242;-67
2021/10/25 04:32:40;;;;;;;0.30;0.30;;;7.00;98.40;;;;;;5016202;28;20200;-68
2021/10/25 04:35:07;;;;;;;0.30;0.30;;;7.00;98.50;;;;;;5016216;28;20187;-67
2021/10/25 04:37:32;;;;;;;0.30;0.30;;;7.00;98.20;;;;;;5016432;28;20175;-68
2021/10/25 04:39:58;;;;;;;0.30;0.30;;;7.00;98.40;;;;;;5016313;28;20694;-67
2021/10/25 04:42:24;;;;;;;0.30;0.30;;;6.90;98.20;;;;;;5015965;28;20437;-67
2021/10/25 04:44:51;;;;;;;0.40;0.40;;;6.90;98.10;;;;;;5015954;28;20500;-68
2021/10/25 04:47:17;;;;;;;0.30;0.30;;;6.70;98.20;;;;;;5016110;28;20399;-68
2021/10/25 04:49:42;;;;;;;0.30;0.30;;;6.60;98.60;;;;;;5015785;28;20270;-68
2021/10/25 04:52:10;;;;;;;0.30;0.30;;;6.60;98.80;;;;;;5015758;28;20233;-67
2021/10/25 04:54:36;;;;;;;0.32;0.32;;;6.50;98.80;;;;;;5014602;28;20266;-67
2021/10/25 04:57:02;;;;;;;0.40;0.40;;;6.50;98.80;;;;;;5015734;28;20183;-68
2021/10/25 04:59:28;;;;;;;0.30;0.30;;;6.40;98.80;;;;;;5015908;28;20168;-68
2021/10/25 05:01:53;;;;;;;0.30;0.30;;;6.40;98.90;;;;;;5015796;28;20430;-68
2021/10/25 05:04:19;;;;;;;0.40;0.40;;;6.30;99.00;;;;;;5015574;28;20179;-67
2021/10/25 05:06:45;;;;;;;0.30;0.30;;;6.30;99.20;;;;;;5015540;28;20171;-68
2021/10/25 05:09:11;;;;;;;0.30;0.30;;;6.30;99.20;;;;;;5015381;28;20494;-67
2021/10/25 05:11:37;;;;;;;0.30;0.30;;;6.30;99.60;;;;;;5015391;28;20281;-67
2021/10/25 05:14:03;;;;;;;0.30;0.30;;;6.20;99.40;;;;;;5015462;28;20694;-67
2021/10/25 05:16:29;;;;;;;1.60;1.50;;;6.20;99.70;;;;;;5015114;28;20402;-68
2021/10/25 05:18:54;;;;;;;0.40;0.40;;;6.20;99.90;;;;;;5015276;28;20645;-67
2021/10/25 05:21:20;;;;;;;0.30;0.30;;;6.30;99.90;;;;;;5015219;28;20187;-68
2021/10/25 05:23:46;;;;;;;1.00;1.00;;;6.30;99.80;;;;;;5014098;28;20530;-68
2021/10/25 05:26:12;;;;;;;0.30;0.30;;;6.40;99.60;;;;;;5015285;28;20538;-68
2021/10/25 05:28:39;;;;;;;0.40;0.40;;;6.30;99.50;;;;;;5015305;28;20172;-67
2021/10/25 05:31:06;;;;;;;0.40;0.40;;;6.30;99.30;;;;;;5015131;28;20553;-68
2021/10/25 05:33:32;;;;;;;0.35;0.35;;;6.30;99.40;;;;;;5014986;28;20732;-67
2021/10/25 05:35:58;;;;;;;0.30;0.30;;;6.20;99.50;;;;;;5014952;28;20186;-68
2021/10/25 05:38:24;;;;;;;0.30;0.30;;;6.20;99.50;;;;;;5015164;28;20175;-67
2021/10/25 05:40:49;;;;;;;0.30;0.30;;;6.10;99.50;;;;;;5015152;28;20218;-67
2021/10/25 05:43:15;;;;;;;0.30;0.30;;;6.10;99.60;;;;;;5015188;28;20195;-67
2021/10/25 05:45:41;;;;;;;0.30;0.30;;;6.10;99.70;;;;;;5014812;28;20175;-67
2021/10/25 05:48:06;;;;;;;0.30;0.30;;;6.10;99.70;;;;;;5014816;28;20236;-68
2021/10/25 05:50:32;;;;;;;0.50;0.50;;;6.10;99.80;;;;;;5014731;28;20450;-68
2021/10/25 05:53:00;;;;;;;0.30;0.30;;;6.10;99.90;;;;;;5013411;28;20669;-68
2021/10/25 05:55:26;;;;;;;0.30;0.30;;;6.20;99.90;;;;;;5014883;28;20405;-67
2021/10/25 05:57:53;;;;;;;0.30;0.30;;;6.20;99.90;;;;;;5013349;28;20310;-68
2021/10/25 06:00:23;;;;;;;0.40;0.40;;;6.20;99.80;;;;;;5014767;28;20175;-67
2021/10/25 06:02:53;;;;;;;0.30;0.30;;;6.10;99.60;;;;;;5014579;28;20512;-68
2021/10/25 06:05:21;;;;;;;0.40;0.40;;;6.00;99.60;;;;;;5014689;28;20194;-68
2021/10/25 06:07:48;;;;;;;0.30;0.30;;;6.00;99.60;;;;;;5014532;28;20266;-68
2021/10/25 06:10:15;;;;;;;0.35;0.35;;;5.90;99.80;;;;;;5014519;28;20171;-67
2021/10/25 06:12:44;;;;;;;0.40;0.40;;;5.90;99.90;;;;;;5014317;28;20199;-67
2021/10/25 06:15:15;;;;;;;0.30;0.30;;;5.90;99.90;;;;;;5014432;28;20172;-68
2021/10/25 06:17:51;;;;;;;0.30;0.30;;;6.00;99.90;;;;;;5014576;28;20573;-68
2021/10/25 06:20:23;;;;;;;0.30;0.30;;;6.00;99.90;;;;;;5013614;28;20168;-68
2021/10/25 06:22:49;;;;;;;0.40;0.40;;;6.00;99.90;;;;;;5014354;28;20221;-67
2021/10/25 06:25:15;;;;;;;0.30;0.30;;;6.10;99.90;;;;;;5014180;28;20176;-67
2021/10/25 06:27:41;;;;;;;0.30;0.30;;;6.20;99.90;;;;;;5014174;28;20176;-67
2021/10/25 06:30:07;;;;;;;0.40;0.40;;;6.20;99.90;;;;;;5014105;28;20513;-68
2021/10/25 06:32:33;;;;;;;0.40;0.40;;;6.30;99.90;;;;;;5014194;28;20195;-67
2021/10/25 06:35:02;;;;;;;0.40;0.40;;;6.20;99.90;;;;;;5012759;28;20547;-68
2021/10/25 06:37:34;;;;;;;0.30;0.30;;;6.30;99.90;;;;;;5014169;28;20163;-67
2021/10/25 06:40:03;;;;;;;0.30;0.30;;;6.40;99.90;;;;;;5014154;28;20669;-68
2021/10/25 06:42:29;;;;;;;0.30;0.30;;;6.40;99.90;;;;;;5013919;28;20222;-68
2021/10/25 06:44:56;;;;;;;0.40;0.40;;;6.50;99.90;;;;;;5013801;28;20183;-67
2021/10/25 06:47:23;;;;;;;0.40;0.40;;;6.70;99.90;;;;;;5013820;28;20170;-67
2021/10/25 06:49:49;;;;;;;0.30;0.30;;;6.80;99.60;;;;;;5013788;28;20201;-68
2021/10/25 06:52:15;;;;;;;0.40;0.40;;;7.00;99.40;;;;;;5013746;28;20220;-68
2021/10/25 06:54:40;;;;;;;0.30;0.30;;;7.00;99.10;;;;;;5013746;28;20273;-67
2021/10/25 06:57:06;;;;;;;0.40;0.40;;;7.10;98.90;;;;;;5013599;28;20421;-68
2021/10/25 06:59:32;;;;;;;0.40;0.40;;;7.10;98.70;;;;;;5013753;28;20172;-68
2021/10/25 07:01:58;;;;;;;0.30;0.30;;;7.10;98.70;;;;;;5013765;28;20192;-68
2021/10/25 07:04:23;;;;;;;0.40;0.40;;;7.10;98.60;;;;;;5013956;28;20172;-67
2021/10/25 07:06:51;;;;;;;0.30;0.30;;;7.20;98.70;;;;;;5013717;28;20168;-68
2021/10/25 07:09:17;;;;;;;0.30;0.30;;;7.40;98.80;;;;;;5013818;28;20523;-68
2021/10/25 07:11:44;;;;;;;0.30;0.30;;;7.50;98.80;;;;;;5013965;28;20198;-68
2021/10/25 07:14:11;;;;;;;0.30;0.30;;;7.60;98.70;;;;;;5013640;28;20237;-68
2021/10/25 07:16:42;;;;;;;0.30;0.30;;;7.70;98.60;;;;;;5013527;28;20191;-68
2021/10/25 08:07:24;;;;;;;0.30;0.30;;;19.60;57.60;;;;;;5016753;28;20781;-67
2021/10/25 08:09:53;;;;;;;0.30;0.30;;;19.40;56.60;;;;;;5016684;28;20896;-67
2021/10/25 08:12:23;;;;;;;0.40;0.40;;;18.80;56.60;;;;;;5016388;28;20439;-69
2021/10/25 08:14:53;;;;;;;0.40;0.40;;;18.80;55.40;;;;;;5016625;28;20815;-68
2021/10/25 08:17:22;;;;;;;0.57;0.57;;;18.40;57.10;;;;;;5016631;28;20460;-68
2021/10/25 08:19:52;;;;;;;0.30;0.30;;;17.80;58.70;;;;;;5016641;28;20407;-67
2021/10/25 08:22:18;;;;;;;0.30;0.30;;;17.40;59.20;;;;;;5015135;28;20939;-68
2021/10/25 08:24:50;;;;;;;0.30;0.30;;;17.30;59.60;;;;;;5016395;28;20434;-68
2021/10/25 08:27:18;;;;;;;2.30;1.60;;;17.00;60.50;;;;;;5016596;28;20402;-68
2021/10/25 08:29:46;;;;;;;0.83;0.83;;;16.80;58.70;;;;;;5016438;28;20399;-68
2021/10/25 08:39:57;;;;;;;0.30;0.30;;;15.60;59.00;;;;;;5016236;28;20174;-67
2021/10/25 08:42:29;;;;;;;0.50;0.50;;;15.40;58.50;;;;;;5016077;28;20414;-68
2021/10/25 08:45:12;;;;;;;0.50;0.50;;;15.30;61.30;;;;;;5015225;28;20398;-68
2021/10/25 08:47:44;;;;;;;0.30;0.30;;;15.30;64.60;;;;;;5016151;28;20459;-68
2021/10/25 08:50:15;;;;;;;0.30;0.30;;;15.50;61.90;;;;;;5016047;28;20775;-67
2021/10/25 08:52:42;;;;;;;0.30;0.30;;;15.70;62.70;;;;;;5015973;28;21042;-67
2021/10/25 08:55:12;;;;;;;0.40;0.40;;;15.90;63.40;;;;;;5015806;28;20405;-66
2021/10/25 08:57:40;;;;;;;0.77;0.77;;;16.10;62.70;;;;;;5015960;28;20429;-68
2021/10/25 09:00:21;;;;;;;0.30;0.30;;;16.30;64.10;;;;;;5015815;28;20888;-68
2021/10/25 09:02:58;;;;;;;0.30;0.30;;;16.40;65.60;;;;;;5015811;28;20391;-67
2021/10/25 09:05:24;;;;;;;0.30;0.30;;;16.40;66.60;;;;;;5015544;28;20412;-68
2021/10/25 09:08:04;;;;;;;0.30;0.30;;;16.40;68.70;;;;;;5015859;28;20404;-68
2021/10/25 09:10:39;;;;;;;0.43;0.43;;;16.50;67.10;;;;;;5030800;28;20965;-68
2021/10/25 09:13:28;;;;;;;0.53;0.53;;;16.60;67.60;;;;;;5015909;28;20447;-67
2021/10/25 09:15:59;;;;;;;0.30;0.30;;;16.70;68.40;;;;;;5017495;28;20858;-67
2021/10/25 09:18:27;;;;;;;0.30;0.30;;;16.90;66.60;;;;;;5015589;28;20394;-68
2021/10/25 09:21:02;;;;;;;0.40;0.40;;;16.90;64.90;;;;;;5015677;28;20463;-68
2021/10/25 09:23:32;;;;;;;0.30;0.30;;;17.00;61.10;;;;;;5015548;28;20402;-67
2021/10/25 09:26:01;;;;;;;0.30;0.30;;;17.00;61.20;;;;;;5015204;28;20411;-67
2021/10/25 09:28:33;;;;;;;0.30;0.30;;;17.30;63.00;;;;;;5015200;28;20485;-68
2021/10/25 09:31:02;;;;;;;0.30;0.30;;;17.80;60.50;;;;;;5015148;28;20437;-67
2021/10/25 09:33:36;;;;;;;0.30;0.30;;;18.30;60.20;;;;;;5015468;28;20493;-67
2021/10/25 09:36:06;;;;;;;0.40;0.40;;;18.90;61.90;;;;;;5013840;28;20430;-68
2021/10/25 09:49:54;;;;;;;0.30;0.30;;;22.00;53.70;;;;;;5014706;28;20428;-68
2021/10/25 09:52:29;;;;;;;0.30;0.30;;;22.10;52.60;;;;;;5014710;28;20430;-69
2021/10/25 09:55:00;;;;;;;0.30;0.30;;;22.10;51.30;;;;;;5014042;28;20459;-69
2021/10/25 09:57:38;;;;;;;0.30;0.30;;;22.20;51.40;;;;;;5014709;28;20402;-67
2021/10/25 10:00:04;;;;;;;0.30;0.30;;;22.60;50.10;;;;;;5014623;28;20402;-68
2021/10/25 10:02:31;;;;;;;0.40;0.40;;;23.00;49.10;;;;;;5014490;28;20490;-68
2021/10/25 10:05:01;;;;;;;0.83;0.83;;;23.60;48.00;;;;;;5014416;28;20478;-68
2021/10/25 10:07:27;;;;;;;0.30;0.30;;;24.70;46.40;;;;;;5014678;28;20408;-68
2021/10/25 10:09:54;;;;;;;0.30;0.30;;;25.10;43.70;;;;;;5014473;28;20423;-67
2021/10/25 10:12:23;;;;;;;0.30;0.30;;;25.30;43.40;;;;;;5014195;28;20469;-67
2021/10/25 10:14:51;;;;;;;0.63;0.63;;;25.30;41.00;;;;;;5014237;28;20398;-69
2021/10/25 10:17:33;;;;;;;0.30;0.30;;;24.70;40.50;;;;;;5014330;28;20406;-68
2021/10/25 10:20:09;;;;;;;0.30;0.30;;;24.70;41.80;;;;;;5014807;28;20410;-68
2021/10/25 10:22:38;;;;;;;0.30;0.30;;;25.40;41.30;;;;;;5012977;28;20422;-69
2021/10/25 10:25:05;;;;;;;0.30;0.30;;;25.60;40.20;;;;;;5013977;28;20385;-68
2021/10/25 10:27:31;;;;;;;0.30;0.30;;;25.90;40.00;;;;;;5012974;28;20754;-68
2021/10/25 10:29:59;;;;;;;0.30;0.30;;;25.90;39.60;;;;;;5012909;28;20381;-66
2021/10/25 10:32:27;;;;;;;0.30;0.30;;;25.70;39.10;;;;;;5014041;28;20257;-69
2021/10/25 10:34:53;;;;;;;0.30;0.30;;;25.80;39.30;;;;;;5014478;28;20381;-67
2021/10/25 10:37:28;;;;;;;0.50;0.50;;;25.80;39.90;;;;;;5014151;28;20410;-68
2021/10/25 10:40:01;;;;;;;0.30;0.30;;;25.80;40.20;;;;;;5013977;28;20424;-68
2021/10/25 10:42:28;;;;;;;0.40;0.40;;;25.20;40.30;;;;;;5013879;28;20401;-68
2021/10/25 10:45:00;;;;;;;0.30;0.30;;;24.20;40.10;;;;;;5013870;28;20441;-68
2021/10/25 10:47:31;;;;;;;0.30;0.30;;;23.40;42.00;;;;;;5014082;28;20395;-68
2021/10/25 10:49:58;;;;;;;0.30;0.30;;;22.80;42.60;;;;;;5013839;28;20441;-67
2021/10/25 10:52:31;;;;;;;0.30;0.30;;;22.00;44.00;;;;;;5013694;28;20527;-67
2021/10/25 11:00:26;;;;;;;0.40;0.40;;;19.80;47.40;;;;;;5013953;28;20446;-68
2021/10/25 11:02:59;;;;;;;0.30;0.30;;;19.30;48.80;;;;;;5013762;28;20903;-67
2021/10/25 11:05:43;;;;;;;0.30;0.30;;;19.30;50.50;;;;;;5013925;28;20408;-68
2021/10/25 11:08:13;;;;;;;0.30;0.30;;;19.10;49.90;;;;;;5013573;28;20410;-67
2021/10/25 11:10:40;;;;;;;0.30;0.30;;;19.00;50.20;;;;;;5013575;28;20436;-68
2021/10/25 11:13:15;;;;;;;0.40;0.40;;;18.90;49.80;;;;;;5013546;28;20457;-68
2021/10/25 11:16:13;;;;;;;0.40;0.40;;;18.80;51.20;;;;;;5013871;28;20406;-68
2021/10/25 11:18:45;;;;;;;0.43;0.43;;;18.90;51.00;;;;;;5015905;28;20421;-68
2021/10/25 11:21:23;;;;;;;0.30;0.30;;;18.90;50.80;;;;;;5013545;28;20465;-68
2021/10/25 11:23:55;;;;;;;0.30;0.30;;;18.90;51.40;;;;;;5013739;28;20902;-68
2021/10/25 11:26:27;;;;;;;0.40;0.40;;;19.10;51.40;;;;;;5013565;28;20429;-69
2021/10/25 11:29:11;;;;;;;0.30;0.30;;;19.10;50.50;;;;;;5013863;28;20407;-68
2021/10/25 11:31:48;;;;;;;0.37;0.37;;;19.00;50.80;;;;;;5013455;28;20805;-68
2021/10/25 11:34:20;;;;;;;0.90;0.90;;;18.60;51.20;;;;;;5013445;28;20458;-68
2021/10/25 11:36:56;;;;;;;0.30;0.30;;;18.60;52.30;;;;;;5013272;28;20817;-68
2021/10/25 11:39:39;;;;;;;0.30;0.30;;;18.90;52.80;;;;;;5013477;28;20767;-68
2021/10/25 11:42:10;;;;;;;0.30;0.30;;;19.10;52.10;;;;;;5013266;28;20435;-68
2021/10/25 11:44:38;;;;;;;0.30;0.30;;;19.10;51.20;;;;;;5013561;28;20403;-68
2021/10/25 11:47:04;;;;;;;0.30;0.30;;;18.90;51.50;;;;;;5013193;28;20472;-68
2021/10/25 11:49:35;;;;;;;0.30;0.30;;;18.80;58.10;;;;;;5013241;28;20411;-68
2021/10/25 11:52:01;;;;;;;0.30;0.30;;;18.60;59.40;;;;;;5013233;28;20199;-68
2021/10/25 11:54:27;;;;;;;0.30;0.30;;;18.70;53.50;;;;;;5013257;28;20483;-68
2021/10/25 11:56:54;;;;;;;0.30;0.30;;;18.80;52.20;;;;;;5013047;28;20172;-68
2021/10/25 11:59:21;;;;;;;0.30;0.30;;;18.80;51.50;;;;;;5013412;28;20402;-67
2021/10/25 12:01:48;;;;;;;0.30;0.30;;;18.70;51.80;;;;;;5013099;28;20899;-67
2021/10/25 12:04:14;;;;;;;0.30;0.30;;;18.40;55.50;;;;;;5013253;28;20417;-68
2021/10/25 12:06:40;;;;;;;0.30;0.30;;;18.20;54.10;;;;;;5013165;28;20407;-68
2021/10/25 12:09:08;;;;;;;0.40;0.40;;;18.20;53.70;;;;;;5013033;28;20492;-68
2021/10/25 12:11:53;;;;;;;0.30;0.30;;;18.40;52.10;;;;;;5013035;28;20441;-68
2021/10/25 12:14:26;;;;;;;0.30;0.30;;;18.30;51.60;;;;;;5013230;28;20462;-68
2021/10/25 12:16:53;;;;;;;0.30;0.30;;;18.40;50.30;;;;;;5013026;28;20795;-67
2021/10/25 12:19:19;;;;;;;0.30;0.30;;;18.50;51.00;;;;;;5014832;28;20403;-68
2021/10/25 12:21:46;;;;;;;0.30;0.30;;;18.30;50.90;;;;;;5016594;28;21001;-68
2021/10/25 12:24:13;;;;;;;0.30;0.30;;;17.90;52.30;;;;;;5016453;28;20494;-68
2021/10/25 12:26:43;;;;;;;0.30;0.30;;;17.90;57.30;;;;;;5015066;28;20418;-68
2021/10/25 12:29:17;;;;;;;0.30;0.30;;;17.70;55.60;;;;;;5016445;28;20815;-68
2021/10/25 12:31:44;;;;;;;0.30;0.30;;;17.50;52.00;;;;;;5016147;28;20448;-68
2021/10/25 12:34:10;;;;;;;0.30;0.30;;;17.50;53.80;;;;;;5016108;28;20454;-68
2021/10/25 12:36:38;;;;;;;0.40;0.40;;;17.40;54.00;;;;;;5016016;28;20418;-68
2021/10/25 12:39:28;;;;;;;0.40;0.40;;;17.50;52.40;;;;;;5016380;28;20246;-68
2021/10/25 12:41:58;;;;;;;0.30;0.30;;;17.40;52.10;;;;;;5016123;28;20460;-67
2021/10/25 12:44:33;;;;;;;0.43;0.43;;;17.30;55.80;;;;;;5016117;28;20429;-67
2021/10/25 12:47:13;;;;;;;0.30;0.30;;;17.00;54.30;;;;;;5015944;28;20763;-68
2021/10/25 12:49:39;;;;;;;0.30;0.30;;;16.70;54.80;;;;;;5016096;28;20429;-67
2021/10/25 12:52:10;;;;;;;0.30;0.30;;;16.50;54.80;;;;;;5015916;28;20502;-68
2021/10/25 12:54:37;;;;;;;0.30;0.30;;;16.60;56.50;;;;;;5016019;28;20456;-67
2021/10/25 12:57:17;;;;;;;0.30;0.30;;;16.60;55.70;;;;;;5015838;28;20413;-68
2021/10/25 12:59:44;;;;;;;0.30;0.30;;;16.60;56.80;;;;;;5016064;28;20806;-68
2021/10/25 13:02:09;;;;;;;0.30;0.30;;;16.50;55.30;;;;;;5015681;28;20474;-68
2021/10/25 13:04:36;;;;;;;0.40;0.40;;;16.30;55.20;;;;;;5015810;28;20413;-68
2021/10/25 13:07:12;;;;;;;0.30;0.30;;;16.40;56.80;;;;;;5014325;28;20256;-68
2021/10/25 13:09:51;;;;;;;0.40;0.40;;;16.40;58.20;;;;;;5015742;28;20441;-67
2021/10/25 13:12:18;;;;;;;0.93;0.93;;;16.20;60.10;;;;;;5015821;28;20428;-67
2021/10/25 13:14:45;;;;;;;0.30;0.30;;;15.90;57.00;;;;;;5015675;28;20981;-67
2021/10/25 13:17:11;;;;;;;0.30;0.30;;;15.70;59.40;;;;;;5015431;28;20409;-68
2021/10/25 13:19:37;;;;;;;0.40;0.40;;;15.60;58.30;;;;;;5015597;28;20403;-68
2021/10/25 13:22:03;;;;;;;0.30;0.30;;;15.50;62.10;;;;;;5015314;28;20432;-67
2021/10/25 13:24:29;;;;;;;0.30;0.30;;;15.40;59.60;;;;;;5015624;28;20778;-67
2021/10/25 13:26:54;;;;;;;0.30;0.30;;;15.20;60.60;;;;;;5015103;28;20437;-68
2021/10/25 13:29:20;;;;;;;0.50;0.50;;;15.10;63.80;;;;;;5013747;28;20214;-68
2021/10/25 13:31:46;;;;;;;0.40;0.40;;;14.90;65.40;;;;;;5015122;28;20202;-68
2021/10/25 13:34:12;;;;;;;0.30;0.30;;;14.70;61.70;;;;;;5013773;28;20261;-66
2021/10/25 13:36:38;;;;;;;0.40;0.40;;;14.60;60.20;;;;;;5014907;28;20410;-67
2021/10/25 13:39:04;;;;;;;0.30;0.30;;;14.70;61.20;;;;;;5015026;28;20278;-68
2021/10/25 13:41:30;;;;;;;0.30;0.30;;;14.70;64.20;;;;;;5014931;28;20564;-67
2021/10/25 13:43:58;;;;;;;0.30;0.30;;;14.70;63.30;;;;;;5015326;28;20418;-68
2021/10/25 13:46:24;;;;;;;0.30;0.30;;;14.70;65.60;;;;;;5014720;28;20498;-66
2021/10/25 13:48:50;;;;;;;0.30;0.30;;;14.60;63.90;;;;;;5015045;28;20422;-67
2021/10/25 13:51:16;;;;;;;0.30;0.30;;;14.60;62.50;;;;;;5014652;28;20822;-67
2021/10/25 13:53:42;;;;;;;0.30;0.30;;;14.50;62.50;;;;;;5015121;28;20462;-67
2021/10/25 13:56:09;;;;;;;0.30;0.30;;;14.50;67.10;;;;;;5014819;28;20183;-68
2021/10/25 13:58:35;;;;;;;0.30;0.30;;;14.40;68.00;;;;;;5014587;28;20266;-68
2021/10/25 14:01:00;;;;;;;0.30;0.30;;;14.40;69.30;;;;;;5014810;28;20442;-67
2021/10/25 14:03:26;;;;;;;0.30;0.30;;;14.30;68.90;;;;;;5014641;28;20183;-68
2021/10/25 14:05:57;;;;;;;0.30;0.30;;;14.20;67.60;;;;;;5014370;28;20595;-68
2021/10/25 14:08:23;;;;;;;0.30;0.30;;;14.00;66.90;;;;;;5014754;28;20508;-68
2021/10/25 14:10:51;;;;;;;0.30;0.30;;;13.90;69.10;;;;;;5014705;28;20793;-68
2021/10/25 14:13:31;;;;;;;0.40;0.40;;;13.80;68.60;;;;;;5014451;28;20286;-68
2021/10/25 14:16:10;;;;;;;0.30;0.30;;;13.70;63.30;;;;;;5014406;28;20390;-68
2021/10/25 14:18:37;;;;;;;0.30;0.30;;;13.70;63.20;;;;;;5014508;28;20733;-68
2021/10/25 14:21:03;;;;;;;0.30;0.30;;;13.70;64.00;;;;;;5014188;28;20843;-67
2021/10/25 14:23:29;;;;;;;0.30;0.30;;;13.60;64.60;;;;;;5014212;28;20481;-68
2021/10/25 14:25:55;;;;;;;0.60;0.60;;;13.70;65.80;;;;;;5014074;28;20411;-68
2021/10/25 14:28:22;;;;;;;0.50;0.50;;;13.70;67.60;;;;;;5013053;28;20406;-68
2021/10/25 14:30:48;;;;;;;0.43;0.43;;;13.70;70.00;;;;;;5014184;28;20500;-67
2021/10/25 14:33:14;;;;;;;0.30;0.30;;;13.60;70.00;;;;;;5013961;28;20461;-68
2021/10/25 14:35:39;;;;;;;0.30;0.30;;;13.60;71.20;;;;;;5013940;28;20433;-68
2021/10/25 14:38:09;;;;;;;0.40;0.40;;;13.50;70.10;;;;;;5014122;28;20182;-67
2021/10/25 14:40:49;;;;;;;0.30;0.30;;;13.50;70.80;;;;;;5014048;28;20202;-67
2021/10/25 14:43:19;;;;;;;0.30;0.30;;;13.30;70.20;;;;;;5013711;28;20386;-68
2021/10/25 14:45:51;;;;;;;0.30;0.30;;;13.20;69.50;;;;;;5012689;28;20509;-67